PWSweather.com
Personal Weather Stations
Station Observations
PXYWEWX1
West End, Punxsutawney, PA 15767

West EndPunxsutawney, PA 15767

Lat: 40.9447, Lon: -78.9905

Elevation: 1273

Station Type: Davis Vantage Pro 2 24 Hour FARS

http://www.punxsutawneyweather.com

Latest ConditionsUpdated 5:00:00 PM EDT Saturday, Jul 21, 2018
Currently Today's Max Today's Min Today's Average
Temperature 72.9°F22.7°C 75.9°F24.4°C 67.0°F19.4°C 71.7°F22.1°C
Dew Point 63.3°F17.4°C 65.5°F18.6°C 59.1°F15.1°C 62.5°F16.9°C
Winds 5.0 mph E8.0 kmh E 5.0 mph -8.0 kmh - - 1.8 mph 2.9 kmh
Wind Gusts 15.9 mph25.6 kmh 15.9 mph25.6 kmh - -
Humidity 72% 80% 68% 73%
Pressure 29.87 in1011.5 mb 29.96 in1014.6 mb 29.87 in1011.5 mb -
Hour Temp Dew Point Humidity Winds Wind Gusts Pressure Precip Precip Rate Daily Precip Total
05:00 PM 72.9°F22.7°C 63.3°F17.4°C 72% 5.0 mph E8.0 kmh E 15.9 mph25.6 kmh 29.87 in1011.5 mb 0.00 in0.0 mm 0.00 in0.0 mm 0.00 in0.0 mm
04:45 PM 74.2°F23.4°C 63.8°F17.7°C 70% 2.3 mph E3.7 kmh E 12.1 mph19.5 kmh 29.87 in1011.5 mb 0.00 in0.0 mm 0.00 in0.0 mm 0.00 in0.0 mm
04:30 PM 74.2°F23.4°C 63.4°F17.4°C 69% 2.6 mph ESE4.2 kmh ESE 6.8 mph10.9 kmh 29.87 in1011.5 mb 0.00 in0.0 mm 0.00 in0.0 mm 0.00 in0.0 mm
04:15 PM 73.7°F23.2°C 63.7°F17.6°C 71% 3.0 mph ESE4.8 kmh ESE 9.1 mph14.6 kmh 29.87 in1011.5 mb 0.00 in0.0 mm 0.00 in0.0 mm 0.00 in0.0 mm
04:00 PM 74.2°F23.4°C 63.8°F17.7°C 70% 2.6 mph ESE4.2 kmh ESE 11.3 mph18.2 kmh 29.87 in1011.5 mb 0.00 in0.0 mm 0.00 in0.0 mm 0.00 in0.0 mm
03:45 PM 75.9°F24.4°C 64.6°F18.1°C 68% 2.4 mph E3.9 kmh E 10.6 mph17.1 kmh 29.87 in1011.5 mb 0.00 in0.0 mm 0.00 in0.0 mm 0.00 in0.0 mm
03:30 PM 74.8°F23.8°C 63.9°F17.7°C 69% 2.5 mph ESE4.0 kmh ESE 7.6 mph12.2 kmh 29.87 in1011.5 mb 0.00 in0.0 mm 0.00 in0.0 mm 0.00 in0.0 mm
03:15 PM 75.0°F23.9°C 63.7°F17.6°C 68% 2.1 mph E3.4 kmh E 12.1 mph19.5 kmh 29.87 in1011.5 mb 0.00 in0.0 mm 0.00 in0.0 mm 0.00 in0.0 mm
03:00 PM 74.9°F23.8°C 64.5°F18.1°C 70% 1.5 mph ESE2.4 kmh ESE 9.1 mph14.6 kmh 29.88 in1011.9 mb 0.00 in0.0 mm 0.00 in0.0 mm 0.00 in0.0 mm
02:45 PM 74.6°F23.7°C 64.6°F18.1°C 71% 4.9 mph E7.9 kmh E 15.1 mph24.3 kmh 29.88 in1011.9 mb 0.00 in0.0 mm 0.00 in0.0 mm 0.00 in0.0 mm
02:30 PM 74.6°F23.7°C 64.2°F17.9°C 70% 4.7 mph E7.6 kmh E 15.1 mph24.3 kmh 29.88 in1011.9 mb 0.00 in0.0 mm 0.00 in0.0 mm 0.00 in0.0 mm
02:15 PM 74.7°F23.7°C 64.3°F17.9°C 70% 2.6 mph E4.2 kmh E 11.3 mph18.2 kmh 29.89 in1012.2 mb 0.00 in0.0 mm 0.00 in0.0 mm 0.00 in0.0 mm
02:00 PM 74.9°F23.8°C 64.5°F18.1°C 70% 1.6 mph E2.6 kmh E 8.3 mph13.4 kmh 29.89 in1012.2 mb 0.00 in0.0 mm 0.00 in0.0 mm 0.00 in0.0 mm
01:45 PM 75.7°F24.3°C 64.8°F18.2°C 69% 2.9 mph E4.7 kmh E 10.6 mph17.1 kmh 29.89 in1012.2 mb 0.00 in0.0 mm 0.00 in0.0 mm 0.00 in0.0 mm
01:30 PM 75.8°F24.3°C 64.5°F18.1°C 68% 2.9 mph SE4.7 kmh SE 9.1 mph14.6 kmh 29.89 in1012.2 mb 0.00 in0.0 mm 0.00 in0.0 mm 0.00 in0.0 mm
01:15 PM 75.3°F24.1°C 64.4°F18.0°C 69% 2.2 mph ESE3.5 kmh ESE 10.6 mph17.1 kmh 29.89 in1012.2 mb 0.00 in0.0 mm 0.00 in0.0 mm 0.00 in0.0 mm
01:00 PM 75.6°F24.2°C 65.5°F18.6°C 71% 3.5 mph SE5.6 kmh SE 9.1 mph14.6 kmh 29.90 in1012.5 mb 0.00 in0.0 mm 0.00 in0.0 mm 0.00 in0.0 mm
12:45 PM 74.0°F23.3°C 64.0°F17.8°C 71% 4.3 mph SE6.9 kmh SE 12.1 mph19.5 kmh 29.90 in1012.5 mb 0.00 in0.0 mm 0.00 in0.0 mm 0.00 in0.0 mm
12:30 PM 74.3°F23.5°C 64.3°F17.9°C 71% 3.4 mph ESE5.5 kmh ESE 14.4 mph23.2 kmh 29.90 in1012.5 mb 0.00 in0.0 mm 0.00 in0.0 mm 0.00 in0.0 mm
12:15 PM 73.9°F23.3°C 63.9°F17.7°C 71% 3.3 mph ESE5.3 kmh ESE 9.1 mph14.6 kmh 29.90 in1012.5 mb 0.00 in0.0 mm 0.00 in0.0 mm 0.00 in0.0 mm
12:00 PM 74.2°F23.4°C 64.6°F18.1°C 72% 3.7 mph SE6.0 kmh SE 8.3 mph13.4 kmh 29.90 in1012.5 mb 0.00 in0.0 mm 0.00 in0.0 mm 0.00 in0.0 mm
11:45 AM 74.2°F23.4°C 65.0°F18.3°C 73% 4.4 mph ESE7.1 kmh ESE 10.6 mph17.1 kmh 29.91 in1012.9 mb 0.00 in0.0 mm 0.00 in0.0 mm 0.00 in0.0 mm
11:30 AM 73.6°F23.1°C 64.4°F18.0°C 73% 3.8 mph ESE6.1 kmh ESE 12.1 mph19.5 kmh 29.90 in1012.5 mb 0.00 in0.0 mm 0.00 in0.0 mm 0.00 in0.0 mm
11:15 AM 73.2°F22.9°C 64.4°F18.0°C 74% 3.2 mph ESE5.1 kmh ESE 10.6 mph17.1 kmh 29.91 in1012.9 mb 0.00 in0.0 mm 0.00 in0.0 mm 0.00 in0.0 mm
11:00 AM 73.5°F23.1°C 65.1°F18.4°C 75% 2.5 mph SE4.0 kmh SE 8.3 mph13.4 kmh 29.91 in1012.9 mb 0.00 in0.0 mm 0.00 in0.0 mm 0.00 in0.0 mm
10:45 AM 72.5°F22.5°C 64.5°F18.1°C 76% 1.0 mph ESE1.6 kmh ESE 8.3 mph13.4 kmh 29.91 in1012.9 mb 0.00 in0.0 mm 0.00 in0.0 mm 0.00 in0.0 mm
10:30 AM 72.1°F22.3°C 64.1°F17.8°C 76% 1.5 mph ESE2.4 kmh ESE 8.3 mph13.4 kmh 29.91 in1012.9 mb 0.00 in0.0 mm 0.00 in0.0 mm 0.00 in0.0 mm
10:15 AM 71.8°F22.1°C 64.2°F17.9°C 77% 1.5 mph SE2.4 kmh SE 8.3 mph13.4 kmh 29.91 in1012.9 mb 0.00 in0.0 mm 0.00 in0.0 mm 0.00 in0.0 mm
10:00 AM 72.2°F22.3°C 65.0°F18.3°C 78% 0.9 mph SE1.4 kmh SE 6.0 mph9.7 kmh 29.91 in1012.9 mb 0.00 in0.0 mm 0.00 in0.0 mm 0.00 in0.0 mm
09:45 AM 72.3°F22.4°C 64.3°F17.9°C 76% 1.7 mph SE2.7 kmh SE 10.6 mph17.1 kmh 29.91 in1012.9 mb 0.00 in0.0 mm 0.00 in0.0 mm 0.00 in0.0 mm
09:30 AM 71.6°F22.0°C 64.4°F18.0°C 78% 0.5 mph SE0.8 kmh SE 4.5 mph7.2 kmh 29.91 in1012.9 mb 0.00 in0.0 mm 0.00 in0.0 mm 0.00 in0.0 mm
09:15 AM 71.0°F21.7°C 63.8°F17.7°C 78% 1.3 mph SE2.1 kmh SE 6.0 mph9.7 kmh 29.91 in1012.9 mb 0.00 in0.0 mm 0.00 in0.0 mm 0.00 in0.0 mm
09:00 AM 71.3°F21.8°C 64.4°F18.0°C 79% 1.4 mph SE2.3 kmh SE 3.8 mph6.1 kmh 29.91 in1012.9 mb 0.00 in0.0 mm 0.00 in0.0 mm 0.00 in0.0 mm
08:45 AM 70.8°F21.6°C 63.6°F17.6°C 78% 1.6 mph ESE2.6 kmh ESE 5.3 mph8.5 kmh 29.92 in1013.2 mb 0.00 in0.0 mm 0.00 in0.0 mm 0.00 in0.0 mm
08:30 AM 70.6°F21.4°C 63.4°F17.4°C 78% 2.1 mph SE3.4 kmh SE 10.6 mph17.1 kmh 29.91 in1012.9 mb 0.00 in0.0 mm 0.00 in0.0 mm 0.00 in0.0 mm
08:15 AM 69.9°F21.1°C 63.1°F17.3°C 79% 1.7 mph SE2.7 kmh SE 7.6 mph12.2 kmh 29.92 in1013.2 mb 0.00 in0.0 mm 0.00 in0.0 mm 0.00 in0.0 mm
08:00 AM 69.8°F21.0°C 63.3°F17.4°C 80% 1.8 mph SE2.9 kmh SE 10.6 mph17.1 kmh 29.91 in1012.9 mb 0.00 in0.0 mm 0.00 in0.0 mm 0.00 in0.0 mm
07:45 AM 69.0°F20.6°C 62.6°F17.0°C 80% 1.2 mph SE1.9 kmh SE 9.8 mph15.8 kmh 29.91 in1012.9 mb 0.00 in0.0 mm 0.00 in0.0 mm 0.00 in0.0 mm
07:30 AM 68.5°F20.3°C 62.1°F16.7°C 80% 1.0 mph SE1.6 kmh SE 4.5 mph7.2 kmh 29.90 in1012.5 mb 0.00 in0.0 mm 0.00 in0.0 mm 0.00 in0.0 mm
07:15 AM 68.0°F20.0°C 61.6°F16.4°C 80% 1.0 mph SE1.6 kmh SE 5.3 mph8.5 kmh 29.91 in1012.9 mb 0.00 in0.0 mm 0.00 in0.0 mm 0.00 in0.0 mm
07:00 AM 67.6°F19.8°C 61.2°F16.2°C 80% 0.6 mph ESE1.0 kmh ESE 6.0 mph9.7 kmh 29.91 in1012.9 mb 0.00 in0.0 mm 0.00 in0.0 mm 0.00 in0.0 mm
06:45 AM 67.4°F19.7°C 61.0°F16.1°C 80% 0.7 mph SE1.1 kmh SE 3.8 mph6.1 kmh 29.91 in1012.9 mb 0.00 in0.0 mm 0.00 in0.0 mm 0.00 in0.0 mm
06:30 AM 67.0°F19.4°C 60.6°F15.9°C 80% 0.7 mph ESE1.1 kmh ESE 3.0 mph4.8 kmh 29.90 in1012.5 mb 0.00 in0.0 mm 0.00 in0.0 mm 0.00 in0.0 mm
06:15 AM 67.3°F19.6°C 60.6°F15.9°C 79% 1.5 mph ESE2.4 kmh ESE 6.0 mph9.7 kmh 29.90 in1012.5 mb 0.00 in0.0 mm 0.00 in0.0 mm 0.00 in0.0 mm
06:00 AM 67.4°F19.7°C 60.3°F15.7°C 78% 1.3 mph ESE2.1 kmh ESE 6.0 mph9.7 kmh 29.91 in1012.9 mb 0.00 in0.0 mm 0.00 in0.0 mm 0.00 in0.0 mm
05:45 AM 67.3°F19.6°C 60.2°F15.7°C 78% 0.8 mph SE1.3 kmh SE 5.3 mph8.5 kmh 29.90 in1012.5 mb 0.00 in0.0 mm 0.00 in0.0 mm 0.00 in0.0 mm
05:30 AM 67.4°F19.7°C 59.9°F15.5°C 77% 0.6 mph E1.0 kmh E 6.8 mph10.9 kmh 29.91 in1012.9 mb 0.00 in0.0 mm 0.00 in0.0 mm 0.00 in0.0 mm
05:15 AM 67.6°F19.8°C 59.8°F15.4°C 76% 0.7 mph ESE1.1 kmh ESE 3.0 mph4.8 kmh 29.91 in1012.9 mb 0.00 in0.0 mm 0.00 in0.0 mm 0.00 in0.0 mm
05:00 AM 67.8°F19.9°C 59.6°F15.3°C 75% 0.1 mph E0.2 kmh E 2.3 mph3.7 kmh 29.91 in1012.9 mb 0.00 in0.0 mm 0.00 in0.0 mm 0.00 in0.0 mm
04:45 AM 68.1°F20.1°C 59.5°F15.3°C 74% 0.8 mph SE1.3 kmh SE 3.8 mph6.1 kmh 29.91 in1012.9 mb 0.00 in0.0 mm 0.00 in0.0 mm 0.00 in0.0 mm
04:30 AM 68.5°F20.3°C 59.5°F15.3°C 73% 0.7 mph ESE1.1 kmh ESE 3.8 mph6.1 kmh 29.91 in1012.9 mb 0.00 in0.0 mm 0.00 in0.0 mm 0.00 in0.0 mm
04:15 AM 68.7°F20.4°C 59.3°F15.2°C 72% 0.8 mph SE1.3 kmh SE 4.5 mph7.2 kmh 29.92 in1013.2 mb 0.00 in0.0 mm 0.00 in0.0 mm 0.00 in0.0 mm
04:00 AM 68.9°F20.5°C 59.1°F15.1°C 71% 1.0 mph ESE1.6 kmh ESE 4.5 mph7.2 kmh 29.91 in1012.9 mb 0.00 in0.0 mm 0.00 in0.0 mm 0.00 in0.0 mm
03:45 AM 69.2°F20.7°C 59.4°F15.2°C 71% 0.4 mph E0.6 kmh E 6.8 mph10.9 kmh 29.92 in1013.2 mb 0.00 in0.0 mm 0.00 in0.0 mm 0.00 in0.0 mm
03:30 AM 69.4°F20.8°C 59.6°F15.3°C 71% Calm Calm 3.0 mph4.8 kmh 29.92 in1013.2 mb 0.00 in0.0 mm 0.00 in0.0 mm 0.00 in0.0 mm
03:15 AM 69.7°F20.9°C 59.5°F15.3°C 70% 0.5 mph SE0.8 kmh SE 3.0 mph4.8 kmh 29.92 in1013.2 mb 0.00 in0.0 mm 0.00 in0.0 mm 0.00 in0.0 mm
03:00 AM 69.9°F21.1°C 59.7°F15.4°C 70% Calm Calm 4.5 mph7.2 kmh 29.92 in1013.2 mb 0.00 in0.0 mm 0.00 in0.0 mm 0.00 in0.0 mm
02:45 AM 70.1°F21.2°C 59.9°F15.5°C 70% 0.2 mph SE0.3 kmh SE 3.0 mph4.8 kmh 29.92 in1013.2 mb 0.00 in0.0 mm 0.00 in0.0 mm 0.00 in0.0 mm
02:30 AM 70.7°F21.5°C 60.0°F15.6°C 69% 0.8 mph ESE1.3 kmh ESE 4.5 mph7.2 kmh 29.92 in1013.2 mb 0.00 in0.0 mm 0.00 in0.0 mm 0.00 in0.0 mm
02:15 AM 71.1°F21.7°C 60.4°F15.8°C 69% 1.3 mph ESE2.1 kmh ESE 6.8 mph10.9 kmh 29.93 in1013.5 mb 0.00 in0.0 mm 0.00 in0.0 mm 0.00 in0.0 mm
02:00 AM 71.7°F22.1°C 61.0°F16.1°C 69% 1.7 mph ESE2.7 kmh ESE 6.8 mph10.9 kmh 29.93 in1013.5 mb 0.00 in0.0 mm 0.00 in0.0 mm 0.00 in0.0 mm
01:45 AM 71.8°F22.1°C 61.1°F16.2°C 69% 1.7 mph SE2.7 kmh SE 8.3 mph13.4 kmh 29.95 in1014.2 mb 0.00 in0.0 mm 0.00 in0.0 mm 0.00 in0.0 mm
01:30 AM 71.9°F22.2°C 61.2°F16.2°C 69% 2.0 mph SSE3.2 kmh SSE 9.8 mph15.8 kmh 29.95 in1014.2 mb 0.00 in0.0 mm 0.00 in0.0 mm 0.00 in0.0 mm
01:15 AM 71.9°F22.2°C 61.2°F16.2°C 69% 1.5 mph SE2.4 kmh SE 9.1 mph14.6 kmh 29.95 in1014.2 mb 0.00 in0.0 mm 0.00 in0.0 mm 0.00 in0.0 mm
01:00 AM 72.2°F22.3°C 61.9°F16.6°C 70% 1.1 mph SE1.8 kmh SE 6.8 mph10.9 kmh 29.95 in1014.2 mb 0.00 in0.0 mm 0.00 in0.0 mm 0.00 in0.0 mm
12:45 AM 72.3°F22.4°C 62.0°F16.7°C 70% 1.5 mph SSE2.4 kmh SSE 6.0 mph9.7 kmh 29.95 in1014.2 mb 0.00 in0.0 mm 0.00 in0.0 mm 0.00 in0.0 mm
12:30 AM 72.6°F22.6°C 62.3°F16.8°C 70% 1.0 mph SE1.6 kmh SE 9.1 mph14.6 kmh 29.96 in1014.6 mb 0.00 in0.0 mm 0.00 in0.0 mm 0.00 in0.0 mm
12:15 AM 72.9°F22.7°C 62.1°F16.7°C 69% 1.5 mph SE2.4 kmh SE 6.0 mph9.7 kmh 29.95 in1014.2 mb 0.00 in0.0 mm 0.00 in0.0 mm 0.00 in0.0 mm
12:00 AM 73.1°F22.8°C 62.3°F16.8°C 69% 2.1 mph SE3.4 kmh SE 9.1 mph14.6 kmh 29.96 in1014.6 mb 0.00 in0.0 mm 0.00 in0.0 mm 0.00 in0.0 mm